sensor_id;sensor_type;location;lat;lon;timestamp;pressure;altitude;pressure_sealevel;temperature;humidity
59063;BME280;44851;45.648;9.004;2023-03-03T00:01:28;99093.75;;;6.74;65.32
59063;BME280;44851;45.648;9.004;2023-03-03T00:03:54;99093.06;;;6.72;65.41
59063;BME280;44851;45.648;9.004;2023-03-03T00:06:20;99091.28;;;6.72;66.24
59063;BME280;44851;45.648;9.004;2023-03-03T00:08:46;99089.59;;;6.71;65.78
59063;BME280;44851;45.648;9.004;2023-03-03T00:11:12;99087.72;;;6.62;65.20
59063;BME280;44851;45.648;9.004;2023-03-03T00:13:53;99085.28;;;6.72;65.08
59063;BME280;44851;45.648;9.004;2023-03-03T00:18:52;99086.31;;;6.69;65.81
59063;BME280;44851;45.648;9.004;2023-03-03T00:21:32;99081.22;;;6.56;64.21
59063;BME280;44851;45.648;9.004;2023-03-03T00:26:37;99070.97;;;6.66;64.78
59063;BME280;44851;45.648;9.004;2023-03-03T00:29:36;99080.97;;;6.59;63.48
59063;BME280;44851;45.648;9.004;2023-03-03T00:34:37;99067.53;;;6.54;65.30
59063;BME280;44851;45.648;9.004;2023-03-03T00:37:03;99063.25;;;6.42;65.25
59063;BME280;44851;45.648;9.004;2023-03-03T00:39:39;99062.59;;;6.51;65.24
59063;BME280;44851;45.648;9.004;2023-03-03T00:42:11;99059.53;;;6.46;64.23
59063;BME280;44851;45.648;9.004;2023-03-03T00:44:45;99063.06;;;6.45;64.93
59063;BME280;44851;45.648;9.004;2023-03-03T00:47:29;99067.63;;;6.41;64.21
59063;BME280;44851;45.648;9.004;2023-03-03T00:50:28;99055.44;;;6.31;64.30
59063;BME280;44851;45.648;9.004;2023-03-03T00:53:05;99057.88;;;6.45;65.58
59063;BME280;44851;45.648;9.004;2023-03-03T00:55:32;99060.34;;;6.47;65.44
59063;BME280;44851;45.648;9.004;2023-03-03T00:57:58;99067.38;;;6.45;64.93
59063;BME280;44851;45.648;9.004;2023-03-03T01:00:23;99058.44;;;6.49;65.33
59063;BME280;44851;45.648;9.004;2023-03-03T01:02:49;99062.34;;;6.54;64.93
59063;BME280;44851;45.648;9.004;2023-03-03T01:05:16;99061.53;;;6.54;64.87
59063;BME280;44851;45.648;9.004;2023-03-03T01:07:42;99055.88;;;6.49;65.39
59063;BME280;44851;45.648;9.004;2023-03-03T01:10:08;99051.50;;;6.49;65.27
59063;BME280;44851;45.648;9.004;2023-03-03T01:12:34;99058.25;;;6.52;65.59
59063;BME280;44851;45.648;9.004;2023-03-03T01:15:00;99058.94;;;6.54;65.36
59063;BME280;44851;45.648;9.004;2023-03-03T01:17:26;99052.09;;;6.41;65.57
59063;BME280;44851;45.648;9.004;2023-03-03T01:19:51;99047.50;;;6.45;65.70
59063;BME280;44851;45.648;9.004;2023-03-03T01:22:17;99047.41;;;6.47;65.49
59063;BME280;44851;45.648;9.004;2023-03-03T01:24:42;99043.97;;;6.46;64.98
59063;BME280;44851;45.648;9.004;2023-03-03T01:27:07;99036.91;;;6.48;65.53
59063;BME280;44851;45.648;9.004;2023-03-03T01:29:33;99041.41;;;6.46;65.67
59063;BME280;44851;45.648;9.004;2023-03-03T01:31:58;99037.53;;;6.52;66.00
59063;BME280;44851;45.648;9.004;2023-03-03T01:34:24;99036.91;;;6.48;65.55
59063;BME280;44851;45.648;9.004;2023-03-03T01:36:49;99028.00;;;6.52;65.77
59063;BME280;44851;45.648;9.004;2023-03-03T01:39:15;99027.00;;;6.42;65.70
59063;BME280;44851;45.648;9.004;2023-03-03T01:41:40;99023.59;;;6.41;65.78
59063;BME280;44851;45.648;9.004;2023-03-03T01:44:06;99023.47;;;6.43;65.38
59063;BME280;44851;45.648;9.004;2023-03-03T01:46:45;99017.00;;;6.37;65.72
59063;BME280;44851;45.648;9.004;2023-03-03T01:49:15;99017.13;;;6.36;66.11
59063;BME280;44851;45.648;9.004;2023-03-03T01:52:07;99015.06;;;6.28;64.73
59063;BME280;44851;45.648;9.004;2023-03-03T01:54:41;99012.38;;;6.30;65.64
59063;BME280;44851;45.648;9.004;2023-03-03T01:57:12;99011.94;;;6.36;65.54
59063;BME280;44851;45.648;9.004;2023-03-03T01:59:44;99008.19;;;6.40;65.84
59063;BME280;44851;45.648;9.004;2023-03-03T02:02:11;99010.72;;;6.29;65.49
59063;BME280;44851;45.648;9.004;2023-03-03T02:04:38;99011.16;;;6.23;65.46
59063;BME280;44851;45.648;9.004;2023-03-03T02:07:08;99011.41;;;6.20;65.90
59063;BME280;44851;45.648;9.004;2023-03-03T02:09:56;99007.09;;;6.07;64.96
59063;BME280;44851;45.648;9.004;2023-03-03T02:12:27;99001.50;;;6.13;66.54
59063;BME280;44851;45.648;9.004;2023-03-03T02:14:55;98999.00;;;6.12;66.05
59063;BME280;44851;45.648;9.004;2023-03-03T02:17:21;98999.34;;;6.07;66.29
59063;BME280;44851;45.648;9.004;2023-03-03T02:22:16;98994.03;;;5.98;66.39
59063;BME280;44851;45.648;9.004;2023-03-03T02:24:50;98994.59;;;6.01;65.87
59063;BME280;44851;45.648;9.004;2023-03-03T02:27:17;98993.72;;;5.89;66.17
59063;BME280;44851;45.648;9.004;2023-03-03T02:29:44;98985.84;;;5.91;66.57
59063;BME280;44851;45.648;9.004;2023-03-03T02:32:09;98979.41;;;5.97;66.31
59063;BME280;44851;45.648;9.004;2023-03-03T02:34:49;98984.22;;;5.90;65.35
59063;BME280;44851;45.648;9.004;2023-03-03T02:37:15;98978.50;;;5.85;66.37
59063;BME280;44851;45.648;9.004;2023-03-03T02:39:41;98969.09;;;5.84;66.41
59063;BME280;44851;45.648;9.004;2023-03-03T02:42:13;98978.09;;;5.91;65.84
59063;BME280;44851;45.648;9.004;2023-03-03T02:44:41;98973.06;;;5.77;66.66
59063;BME280;44851;45.648;9.004;2023-03-03T02:47:07;98970.63;;;5.62;66.13
59063;BME280;44851;45.648;9.004;2023-03-03T02:49:35;98970.19;;;5.69;65.95
59063;BME280;44851;45.648;9.004;2023-03-03T02:52:02;98965.63;;;5.72;66.17
59063;BME280;44851;45.648;9.004;2023-03-03T02:54:29;98958.41;;;5.64;66.20
59063;BME280;44851;45.648;9.004;2023-03-03T02:56:55;98967.94;;;5.64;65.45
59063;BME280;44851;45.648;9.004;2023-03-03T02:59:21;98963.81;;;5.61;66.63
59063;BME280;44851;45.648;9.004;2023-03-03T03:01:46;98950.31;;;5.69;66.11
59063;BME280;44851;45.648;9.004;2023-03-03T03:04:14;98944.66;;;5.64;66.70
59063;BME280;44851;45.648;9.004;2023-03-03T03:06:40;98947.09;;;5.54;66.00
59063;BME280;44851;45.648;9.004;2023-03-03T03:09:07;98941.00;;;5.55;66.06
59063;BME280;44851;45.648;9.004;2023-03-03T03:11:34;98940.88;;;5.57;66.14
59063;BME280;44851;45.648;9.004;2023-03-03T03:14:01;98931.78;;;5.51;65.89
59063;BME280;44851;45.648;9.004;2023-03-03T03:16:26;98933.06;;;5.46;66.50
59063;BME280;44851;45.648;9.004;2023-03-03T03:18:52;98933.06;;;5.46;66.36
59063;BME280;44851;45.648;9.004;2023-03-03T03:21:17;98937.41;;;5.45;66.54
59063;BME280;44851;45.648;9.004;2023-03-03T03:23:43;98927.31;;;5.53;66.34
59063;BME280;44851;45.648;9.004;2023-03-03T03:26:08;98931.00;;;5.38;66.36
59063;BME280;44851;45.648;9.004;2023-03-03T03:28:34;98931.84;;;5.38;66.47
59063;BME280;44851;45.648;9.004;2023-03-03T03:31:02;98925.81;;;5.38;66.91
59063;BME280;44851;45.648;9.004;2023-03-03T03:33:27;98930.00;;;5.28;65.86
59063;BME280;44851;45.648;9.004;2023-03-03T03:35:53;98929.47;;;5.35;66.92
59063;BME280;44851;45.648;9.004;2023-03-03T03:38:20;98928.63;;;5.35;66.17
59063;BME280;44851;45.648;9.004;2023-03-03T03:40:46;98926.63;;;5.15;66.29
59063;BME280;44851;45.648;9.004;2023-03-03T03:43:11;98926.63;;;5.15;67.67
59063;BME280;44851;45.648;9.004;2023-03-03T03:45:37;98924.50;;;5.32;67.47
59063;BME280;44851;45.648;9.004;2023-03-03T03:48:02;98923.78;;;5.30;66.71
59063;BME280;44851;45.648;9.004;2023-03-03T03:50:28;98929.28;;;5.26;66.96
59063;BME280;44851;45.648;9.004;2023-03-03T03:52:53;98925.34;;;5.33;67.24
59063;BME280;44851;45.648;9.004;2023-03-03T03:55:19;98932.09;;;5.23;66.85
59063;BME280;44851;45.648;9.004;2023-03-03T03:57:44;98929.78;;;5.31;66.78
59063;BME280;44851;45.648;9.004;2023-03-03T04:00:12;98930.09;;;5.26;67.44
59063;BME280;44851;45.648;9.004;2023-03-03T04:02:37;98929.00;;;5.18;67.02
59063;BME280;44851;45.648;9.004;2023-03-03T04:05:03;98917.22;;;5.14;66.59
59063;BME280;44851;45.648;9.004;2023-03-03T04:07:29;98917.34;;;4.99;66.75
59063;BME280;44851;45.648;9.004;2023-03-03T04:09:54;98918.47;;;5.08;66.78
59063;BME280;44851;45.648;9.004;2023-03-03T04:12:20;98914.31;;;5.18;66.87
59063;BME280;44851;45.648;9.004;2023-03-03T04:14:45;98912.56;;;5.06;66.26
59063;BME280;44851;45.648;9.004;2023-03-03T04:17:16;98907.72;;;5.14;66.63
59063;BME280;44851;45.648;9.004;2023-03-03T04:19:42;98914.31;;;5.18;67.25
59063;BME280;44851;45.648;9.004;2023-03-03T04:22:07;98911.13;;;5.15;66.85
59063;BME280;44851;45.648;9.004;2023-03-03T04:24:33;98909.88;;;5.20;67.24
59063;BME280;44851;45.648;9.004;2023-03-03T04:26:58;98912.06;;;5.14;66.85
59063;BME280;44851;45.648;9.004;2023-03-03T04:29:25;98907.84;;;5.13;67.19
59063;BME280;44851;45.648;9.004;2023-03-03T04:31:50;98906.06;;;5.13;66.04
59063;BME280;44851;45.648;9.004;2023-03-03T04:34:15;98907.84;;;5.13;66.66
59063;BME280;44851;45.648;9.004;2023-03-03T04:36:41;98900.91;;;5.13;67.09
59063;BME280;44851;45.648;9.004;2023-03-03T04:39:06;98892.41;;;5.24;66.14
59063;BME280;44851;45.648;9.004;2023-03-03T04:41:32;98899.97;;;5.14;66.46
59063;BME280;44851;45.648;9.004;2023-03-03T04:43:57;98894.69;;;5.16;66.08
59063;BME280;44851;45.648;9.004;2023-03-03T04:46:23;98892.22;;;5.14;66.95
59063;BME280;44851;45.648;9.004;2023-03-03T04:48:48;98895.75;;;5.00;66.94
59063;BME280;44851;45.648;9.004;2023-03-03T04:51:13;98894.72;;;5.03;66.51
59063;BME280;44851;45.648;9.004;2023-03-03T04:53:40;98892.03;;;5.04;66.38
59063;BME280;44851;45.648;9.004;2023-03-03T04:56:06;98898.41;;;5.11;66.56
59063;BME280;44851;45.648;9.004;2023-03-03T04:58:32;98897.81;;;5.08;66.88
59063;BME280;44851;45.648;9.004;2023-03-03T05:00:57;98897.81;;;4.95;66.67
59063;BME280;44851;45.648;9.004;2023-03-03T05:03:23;98901.06;;;4.86;66.66
59063;BME280;44851;45.648;9.004;2023-03-03T05:05:49;98890.06;;;4.95;66.29
59063;BME280;44851;45.648;9.004;2023-03-03T05:08:15;98899.31;;;4.87;65.94
59063;BME280;44851;45.648;9.004;2023-03-03T05:10:40;98894.09;;;4.99;66.45
59063;BME280;44851;45.648;9.004;2023-03-03T05:13:06;98897.13;;;4.93;65.75
59063;BME280;44851;45.648;9.004;2023-03-03T05:15:33;98901.13;;;4.97;66.29
59063;BME280;44851;45.648;9.004;2023-03-03T05:17:58;98892.66;;;4.95;66.60
59063;BME280;44851;45.648;9.004;2023-03-03T05:20:24;98899.50;;;4.96;66.59
59063;BME280;44851;45.648;9.004;2023-03-03T05:22:50;98896.81;;;4.98;65.94
59063;BME280;44851;45.648;9.004;2023-03-03T05:25:15;98892.47;;;4.98;65.98
59063;BME280;44851;45.648;9.004;2023-03-03T05:27:41;98896.81;;;4.98;66.15
59063;BME280;44851;45.648;9.004;2023-03-03T05:30:09;98895.47;;;4.92;65.78
59063;BME280;44851;45.648;9.004;2023-03-03T05:32:35;98903.94;;;4.94;65.65
59063;BME280;44851;45.648;9.004;2023-03-03T05:35:00;98904.78;;;4.82;65.94
59063;BME280;44851;45.648;9.004;2023-03-03T05:37:26;98900.94;;;4.88;65.94
59063;BME280;44851;45.648;9.004;2023-03-03T05:39:51;98899.19;;;4.88;66.32
59063;BME280;44851;45.648;9.004;2023-03-03T05:42:17;98903.22;;;4.79;66.15
59063;BME280;44851;45.648;9.004;2023-03-03T05:44:42;98899.53;;;4.71;66.11
59063;BME280;44851;45.648;9.004;2023-03-03T05:47:08;98904.59;;;4.59;65.20
59063;BME280;44851;45.648;9.004;2023-03-03T05:49:34;98899.09;;;4.77;66.22
59063;BME280;44851;45.648;9.004;2023-03-03T05:51:59;98898.59;;;4.72;66.72
59063;BME280;44851;45.648;9.004;2023-03-03T05:54:25;98903.75;;;4.72;66.58
59063;BME280;44851;45.648;9.004;2023-03-03T05:56:50;98903.94;;;4.69;66.52
59063;BME280;44851;45.648;9.004;2023-03-03T05:59:16;98903.25;;;4.67;66.68
59063;BME280;44851;45.648;9.004;2023-03-03T06:01:41;98914.78;;;4.74;66.37
59063;BME280;44851;45.648;9.004;2023-03-03T06:04:07;98915.22;;;4.68;66.37
59063;BME280;44851;45.648;9.004;2023-03-03T06:06:32;98905.09;;;4.77;66.29
59063;BME280;44851;45.648;9.004;2023-03-03T06:08:58;98911.19;;;4.76;66.35
59063;BME280;44851;45.648;9.004;2023-03-03T06:11:23;98909.84;;;4.71;66.63
59063;BME280;44851;45.648;9.004;2023-03-03T06:13:49;98920.78;;;4.62;65.94
59063;BME280;44851;45.648;9.004;2023-03-03T06:16:14;98921.19;;;4.68;66.71
59063;BME280;44851;45.648;9.004;2023-03-03T06:18:40;98908.22;;;4.70;66.34
59063;BME280;44851;45.648;9.004;2023-03-03T06:21:05;98917.28;;;4.75;66.37
59063;BME280;44851;45.648;9.004;2023-03-03T06:23:31;98913.03;;;4.74;66.09
59063;BME280;44851;45.648;9.004;2023-03-03T06:25:56;98916.03;;;4.81;66.86
59063;BME280;44851;45.648;9.004;2023-03-03T06:28:22;98914.47;;;4.91;66.24
59063;BME280;44851;45.648;9.004;2023-03-03T06:30:52;98918.47;;;4.95;65.96
59063;BME280;44851;45.648;9.004;2023-03-03T06:33:18;98923.47;;;4.73;66.23
59063;BME280;44851;45.648;9.004;2023-03-03T06:35:44;98924.63;;;4.81;66.28
59063;BME280;44851;45.648;9.004;2023-03-03T06:38:13;98924.19;;;4.88;66.81
59063;BME280;44851;45.648;9.004;2023-03-03T06:40:38;98926.03;;;4.98;66.68
59063;BME280;44851;45.648;9.004;2023-03-03T06:43:03;98934.59;;;4.99;66.92
59063;BME280;44851;45.648;9.004;2023-03-03T06:45:29;98929.75;;;4.94;66.49
59063;BME280;44851;45.648;9.004;2023-03-03T06:47:54;98933.78;;;4.98;66.58
59063;BME280;44851;45.648;9.004;2023-03-03T06:50:20;98936.44;;;5.09;66.55
59063;BME280;44851;45.648;9.004;2023-03-03T06:52:46;98941.34;;;5.01;66.82
59063;BME280;44851;45.648;9.004;2023-03-03T06:55:17;98941.03;;;4.93;65.83
59063;BME280;44851;45.648;9.004;2023-03-03T06:57:45;98942.75;;;5.05;67.11
59063;BME280;44851;45.648;9.004;2023-03-03T07:00:15;98939.75;;;5.11;66.60
59063;BME280;44851;45.648;9.004;2023-03-03T07:02:41;98945.84;;;5.10;66.70
59063;BME280;44851;45.648;9.004;2023-03-03T07:05:14;98938.50;;;5.17;66.35
59063;BME280;44851;45.648;9.004;2023-03-03T07:07:40;98947.16;;;5.29;66.37
59063;BME280;44851;45.648;9.004;2023-03-03T07:10:15;98948.59;;;5.33;66.17
59063;BME280;44851;45.648;9.004;2023-03-03T07:12:42;98947.16;;;5.29;66.48
59063;BME280;44851;45.648;9.004;2023-03-03T07:17:43;98950.84;;;5.37;66.92
59063;BME280;44851;45.648;9.004;2023-03-03T07:20:37;98954.06;;;5.41;65.02
59063;BME280;44851;45.648;9.004;2023-03-03T07:23:29;98949.38;;;5.46;65.48
59063;BME280;44851;45.648;9.004;2023-03-03T07:25:58;98949.19;;;5.49;66.52
59063;BME280;44851;45.648;9.004;2023-03-03T07:28:27;98954.47;;;5.72;65.86
59063;BME280;44851;45.648;9.004;2023-03-03T07:30:55;98948.94;;;5.89;65.84
59063;BME280;44851;45.648;9.004;2023-03-03T07:33:44;98947.53;;;5.96;65.67
59063;BME280;44851;45.648;9.004;2023-03-03T07:36:38;98949.81;;;6.01;64.20
59063;BME280;44851;45.648;9.004;2023-03-03T07:39:34;98954.34;;;6.21;64.13
59063;BME280;44851;45.648;9.004;2023-03-03T07:42:25;98956.13;;;6.21;63.41
59063;BME280;44851;45.648;9.004;2023-03-03T07:44:55;98952.22;;;6.50;65.04
59063;BME280;44851;45.648;9.004;2023-03-03T07:47:34;98953.94;;;6.50;63.74
59063;BME280;44851;45.648;9.004;2023-03-03T07:50:13;98950.06;;;6.55;64.08
59063;BME280;44851;45.648;9.004;2023-03-03T07:52:42;98951.63;;;6.69;64.42
59063;BME280;44851;45.648;9.004;2023-03-03T07:55:54;98953.75;;;6.75;63.59
59063;BME280;44851;45.648;9.004;2023-03-03T07:58:26;98950.13;;;6.78;64.50
59063;BME280;44851;45.648;9.004;2023-03-03T08:03:46;98948.97;;;7.04;66.67
59063;BME280;44851;45.648;9.004;2023-03-03T08:08:48;98949.97;;;7.46;64.73
59063;BME280;44851;45.648;9.004;2023-03-03T08:11:13;98953.81;;;7.63;63.20
59063;BME280;44851;45.648;9.004;2023-03-03T08:13:40;98953.38;;;8.02;62.88
59063;BME280;44851;45.648;9.004;2023-03-03T08:18:42;98955.72;;;8.67;61.35
59063;BME280;44851;45.648;9.004;2023-03-03T08:21:15;98951.56;;;9.16;61.64
59063;BME280;44851;45.648;9.004;2023-03-03T08:23:42;98960.72;;;9.41;58.73
59063;BME280;44851;45.648;9.004;2023-03-03T08:26:07;98963.00;;;9.85;59.95
59063;BME280;44851;45.648;9.004;2023-03-03T08:28:33;98963.13;;;9.73;56.08
59063;BME280;44851;45.648;9.004;2023-03-03T08:30:59;98957.25;;;10.29;60.28
59063;BME280;44851;45.648;9.004;2023-03-03T08:33:25;98958.03;;;10.59;56.13
59063;BME280;44851;45.648;9.004;2023-03-03T08:35:50;98963.22;;;10.78;54.27
59063;BME280;44851;45.648;9.004;2023-03-03T08:38:18;98960.09;;;11.12;56.14
59063;BME280;44851;45.648;9.004;2023-03-03T08:40:44;98957.41;;;11.31;55.14
59063;BME280;44851;45.648;9.004;2023-03-03T08:43:10;98957.47;;;11.39;54.49
59063;BME280;44851;45.648;9.004;2023-03-03T08:45:37;98961.03;;;11.48;53.91
59063;BME280;44851;45.648;9.004;2023-03-03T08:48:03;98962.28;;;11.44;50.76
59063;BME280;44851;45.648;9.004;2023-03-03T08:50:29;98954.88;;;11.67;52.06
59063;BME280;44851;45.648;9.004;2023-03-03T08:52:55;98954.78;;;11.77;53.06
59063;BME280;44851;45.648;9.004;2023-03-03T08:55:21;98955.97;;;11.82;52.49
59063;BME280;44851;45.648;9.004;2023-03-03T08:57:46;98960.69;;;11.97;50.53
59063;BME280;44851;45.648;9.004;2023-03-03T09:00:14;98957.16;;;11.88;51.14
59063;BME280;44851;45.648;9.004;2023-03-03T09:02:40;98962.81;;;12.11;52.45
59063;BME280;44851;45.648;9.004;2023-03-03T09:05:07;98963.25;;;12.24;50.23
59063;BME280;44851;45.648;9.004;2023-03-03T09:07:33;98963.84;;;12.18;47.87
59063;BME280;44851;45.648;9.004;2023-03-03T09:09:59;98957.84;;;12.43;49.75
59063;BME280;44851;45.648;9.004;2023-03-03T09:12:28;98965.94;;;12.14;48.57
59063;BME280;44851;45.648;9.004;2023-03-03T09:14:56;98970.28;;;12.41;50.68
59063;BME280;44851;45.648;9.004;2023-03-03T09:17:31;98962.28;;;12.69;50.12
59063;BME280;44851;45.648;9.004;2023-03-03T09:20:24;98970.44;;;12.66;48.76
59063;BME280;44851;45.648;9.004;2023-03-03T09:22:51;98965.03;;;12.93;51.36
59063;BME280;44851;45.648;9.004;2023-03-03T09:25:30;98969.69;;;12.74;47.94
59063;BME280;44851;45.648;9.004;2023-03-03T09:27:56;98967.28;;;13.14;48.63
59063;BME280;44851;45.648;9.004;2023-03-03T09:32:51;98967.00;;;13.17;50.17
59063;BME280;44851;45.648;9.004;2023-03-03T09:35:36;98971.69;;;12.62;47.73
59063;BME280;44851;45.648;9.004;2023-03-03T09:43:41;98973.84;;;12.66;47.67
59063;BME280;44851;45.648;9.004;2023-03-03T09:52:32;98974.50;;;13.55;49.61
59063;BME280;44851;45.648;9.004;2023-03-03T09:55:20;98982.06;;;12.98;46.26
59063;BME280;44851;45.648;9.004;2023-03-03T09:58:22;98977.13;;;12.94;48.58
59063;BME280;44851;45.648;9.004;2023-03-03T10:00:54;98984.78;;;12.88;48.74
59063;BME280;44851;45.648;9.004;2023-03-03T10:03:51;98989.06;;;12.63;48.06
59063;BME280;44851;45.648;9.004;2023-03-03T10:06:28;98984.69;;;12.72;49.18
59063;BME280;44851;45.648;9.004;2023-03-03T10:12:30;98982.38;;;12.94;47.89
59063;BME280;44851;45.648;9.004;2023-03-03T10:18:01;98993.88;;;12.76;46.92
59063;BME280;44851;45.648;9.004;2023-03-03T10:21:11;98981.28;;;13.05;46.93
59063;BME280;44851;45.648;9.004;2023-03-03T10:23:51;98983.34;;;13.54;47.98
59063;BME280;44851;45.648;9.004;2023-03-03T10:29:28;98978.53;;;13.91;46.08
59063;BME280;44851;45.648;9.004;2023-03-03T10:40:32;98970.97;;;14.86;44.50
59063;BME280;44851;45.648;9.004;2023-03-03T10:45:52;98979.84;;;14.85;42.45
59063;BME280;44851;45.648;9.004;2023-03-03T10:56:54;98972.16;;;15.39;41.27
59063;BME280;44851;45.648;9.004;2023-03-03T11:00:13;98977.69;;;15.52;42.72
59063;BME280;44851;45.648;9.004;2023-03-03T11:02:31;98970.44;;;15.54;40.24
59063;BME280;44851;45.648;9.004;2023-03-03T11:05:20;98976.06;;;15.51;40.55
59063;BME280;44851;45.648;9.004;2023-03-03T11:08:18;98969.53;;;15.39;40.92
59063;BME280;44851;45.648;9.004;2023-03-03T11:13:51;98975.22;;;15.51;40.64
59063;BME280;44851;45.648;9.004;2023-03-03T11:24:31;98966.38;;;16.29;41.06
59063;BME280;44851;45.648;9.004;2023-03-03T11:29:51;98945.03;;;15.78;39.95
59063;BME280;44851;45.648;9.004;2023-03-03T11:35:18;98944.81;;;16.11;40.09
59063;BME280;44851;45.648;9.004;2023-03-03T11:40:56;98949.66;;;16.59;40.20
59063;BME280;44851;45.648;9.004;2023-03-03T11:43:44;98939.75;;;16.47;40.37
59063;BME280;44851;45.648;9.004;2023-03-03T11:46:25;98936.50;;;16.59;38.31
59063;BME280;44851;45.648;9.004;2023-03-03T11:49:00;98935.97;;;16.64;38.26
59063;BME280;44851;45.648;9.004;2023-03-03T11:51:43;98933.41;;;16.56;36.71
59063;BME280;44851;45.648;9.004;2023-03-03T11:54:22;98930.63;;;16.57;37.67
59063;BME280;44851;45.648;9.004;2023-03-03T11:56:48;98929.34;;;16.83;38.43
59063;BME280;44851;45.648;9.004;2023-03-03T12:02:04;98933.72;;;16.76;37.42
59063;BME280;44851;45.648;9.004;2023-03-03T12:04:43;98935.44;;;16.83;36.77
59063;BME280;44851;45.648;9.004;2023-03-03T12:10:21;98924.34;;;16.58;36.06
59063;BME280;44851;45.648;9.004;2023-03-03T12:13:01;98918.41;;;16.27;34.95
59063;BME280;44851;45.648;9.004;2023-03-03T12:27:29;98918.72;;;16.76;37.36
59063;BME280;44851;45.648;9.004;2023-03-03T12:33:20;98908.47;;;16.96;34.92
59063;BME280;44851;45.648;9.004;2023-03-03T12:49:09;98888.88;;;17.13;36.08
59063;BME280;44851;45.648;9.004;2023-03-03T12:57:05;98892.50;;;17.12;34.14
59063;BME280;44851;45.648;9.004;2023-03-03T13:02:40;98883.66;;;17.35;35.58
59063;BME280;44851;45.648;9.004;2023-03-03T13:08:07;98887.59;;;16.50;35.25
59063;BME280;44851;45.648;9.004;2023-03-03T13:10:48;98887.03;;;16.99;35.12
59063;BME280;44851;45.648;9.004;2023-03-03T13:13:23;98883.13;;;17.10;34.94
59063;BME280;44851;45.648;9.004;2023-03-03T13:16:28;98884.31;;;16.78;34.80
59063;BME280;44851;45.648;9.004;2023-03-03T13:21:35;98880.78;;;17.00;34.58
59063;BME280;44851;45.648;9.004;2023-03-03T13:26:54;98882.84;;;17.20;35.27
59063;BME280;44851;45.648;9.004;2023-03-03T13:29:36;98881.28;;;17.40;35.32
59063;BME280;44851;45.648;9.004;2023-03-03T13:32:10;98879.91;;;17.44;37.26
59063;BME280;44851;45.648;9.004;2023-03-03T13:34:56;98886.75;;;17.24;34.28
59063;BME280;44851;45.648;9.004;2023-03-03T13:37:44;98880.56;;;17.31;36.30
59063;BME280;44851;45.648;9.004;2023-03-03T13:42:53;98871.78;;;17.09;34.74
59063;BME280;44851;45.648;9.004;2023-03-03T13:45:40;98876.41;;;17.07;33.95
59063;BME280;44851;45.648;9.004;2023-03-03T13:57:09;98875.53;;;17.00;34.25
59063;BME280;44851;45.648;9.004;2023-03-03T13:59:40;98870.06;;;16.87;34.34
59063;BME280;44851;45.648;9.004;2023-03-03T14:05:12;98870.06;;;16.87;34.30
59063;BME280;44851;45.648;9.004;2023-03-03T14:07:48;98880.72;;;16.64;35.00
59063;BME280;44851;45.648;9.004;2023-03-03T14:10:21;98869.38;;;16.78;35.34
59063;BME280;44851;45.648;9.004;2023-03-03T14:13:08;98868.38;;;16.65;35.30
59063;BME280;44851;45.648;9.004;2023-03-03T14:16:03;98871.06;;;16.56;35.61
59063;BME280;44851;45.648;9.004;2023-03-03T14:18:40;98868.38;;;16.65;35.49
59063;BME280;44851;45.648;9.004;2023-03-03T14:21:18;98867.09;;;16.31;35.00
59063;BME280;44851;45.648;9.004;2023-03-03T14:24:10;98868.81;;;16.39;34.98
59063;BME280;44851;45.648;9.004;2023-03-03T14:26:48;98869.53;;;16.32;35.18
59063;BME280;44851;45.648;9.004;2023-03-03T14:31:52;98864.34;;;16.39;36.15
59063;BME280;44851;45.648;9.004;2023-03-03T14:36:48;98862.47;;;16.48;35.47
59063;BME280;44851;45.648;9.004;2023-03-03T14:39:33;98870.97;;;16.35;34.76
59063;BME280;44851;45.648;9.004;2023-03-03T14:42:01;98868.00;;;16.38;36.09
59063;BME280;44851;45.648;9.004;2023-03-03T14:44:35;98878.03;;;16.20;35.91
59063;BME280;44851;45.648;9.004;2023-03-03T14:49:36;98871.53;;;16.07;35.21
59063;BME280;44851;45.648;9.004;2023-03-03T14:52:04;98866.41;;;15.91;36.02
59063;BME280;44851;45.648;9.004;2023-03-03T14:54:43;98859.84;;;15.87;36.19
59063;BME280;44851;45.648;9.004;2023-03-03T14:59:37;98866.53;;;15.75;36.02
59063;BME280;44851;45.648;9.004;2023-03-03T15:04:44;98866.16;;;15.55;36.30
59063;BME280;44851;45.648;9.004;2023-03-03T15:07:28;98861.31;;;15.44;36.68
59063;BME280;44851;45.648;9.004;2023-03-03T15:09:55;98863.72;;;15.30;36.76
59063;BME280;44851;45.648;9.004;2023-03-03T15:12:24;98864.09;;;15.11;37.50
59063;BME280;44851;45.648;9.004;2023-03-03T15:15:16;98863.22;;;15.27;37.29
59063;BME280;44851;45.648;9.004;2023-03-03T15:20:34;98870.03;;;15.05;37.55
59063;BME280;44851;45.648;9.004;2023-03-03T15:23:07;98862.03;;;14.98;38.41
59063;BME280;44851;45.648;9.004;2023-03-03T15:26:07;98863.44;;;14.70;39.68
59063;BME280;44851;45.648;9.004;2023-03-03T15:31:41;98861.91;;;14.92;38.85
59063;BME280;44851;45.648;9.004;2023-03-03T15:42:44;98860.69;;;14.63;39.85
59063;BME280;44851;45.648;9.004;2023-03-03T15:45:29;98859.91;;;14.46;39.33
59063;BME280;44851;45.648;9.004;2023-03-03T15:53:18;98853.19;;;14.52;39.50
59063;BME280;44851;45.648;9.004;2023-03-03T15:55:58;98855.63;;;14.62;40.03
59063;BME280;44851;45.648;9.004;2023-03-03T16:01:30;98860.22;;;14.51;39.87
59063;BME280;44851;45.648;9.004;2023-03-03T16:04:04;98860.88;;;14.62;39.99
59063;BME280;44851;45.648;9.004;2023-03-03T16:06:51;98862.91;;;14.35;39.70
59063;BME280;44851;45.648;9.004;2023-03-03T16:09:35;98865.81;;;14.48;40.59
59063;BME280;44851;45.648;9.004;2023-03-03T16:12:30;98861.41;;;14.41;39.88
59063;BME280;44851;45.648;9.004;2023-03-03T16:17:52;98864.16;;;14.56;40.48
59063;BME280;44851;45.648;9.004;2023-03-03T16:25:35;98858.28;;;14.45;39.30
59063;BME280;44851;45.648;9.004;2023-03-03T16:28:10;98877.94;;;14.49;39.61
59063;BME280;44851;45.648;9.004;2023-03-03T16:31:02;98873.88;;;14.31;40.00
59063;BME280;44851;45.648;9.004;2023-03-03T16:41:24;98888.13;;;14.20;41.87
59063;BME280;44851;45.648;9.004;2023-03-03T16:46:42;98897.63;;;14.05;40.83
59063;BME280;44851;45.648;9.004;2023-03-03T16:54:22;98898.09;;;14.00;40.54
59063;BME280;44851;45.648;9.004;2023-03-03T17:02:06;98915.47;;;13.93;41.54
59063;BME280;44851;45.648;9.004;2023-03-03T17:05:16;98918.25;;;13.83;41.99